createdAt,value
2018-10-17T00:02:12.932Z,63.50
2018-10-17T00:04:43.505Z,63.70
2018-10-17T00:07:14.023Z,64.10
2018-10-17T00:09:44.545Z,64.50
2018-10-17T00:12:14.977Z,64.50
2018-10-17T00:14:45.469Z,64.40
2018-10-17T00:17:15.872Z,64.00
2018-10-17T00:19:46.403Z,63.80
2018-10-17T00:22:16.871Z,63.90
2018-10-17T00:24:47.344Z,63.90
2018-10-17T00:27:17.727Z,63.90
2018-10-17T00:29:48.475Z,64.10
2018-10-17T00:32:18.928Z,64.40
2018-10-17T00:34:49.392Z,64.40
2018-10-17T00:37:19.828Z,64.60
2018-10-17T00:39:50.305Z,64.60
2018-10-17T00:42:20.713Z,65.00
2018-10-17T00:44:51.220Z,65.00
2018-10-17T00:47:21.600Z,65.30
2018-10-17T00:49:52.092Z,65.60
2018-10-17T00:52:22.533Z,65.70
2018-10-17T00:54:53.044Z,65.60
2018-10-17T00:57:23.456Z,65.70
2018-10-17T00:59:53.935Z,65.70
2018-10-17T01:02:24.519Z,65.90
2018-10-17T01:04:55.090Z,66.00
2018-10-17T01:07:25.616Z,65.80
2018-10-17T01:09:56.161Z,65.80
2018-10-17T01:12:26.487Z,65.20
2018-10-17T01:14:56.901Z,65.60
2018-10-17T01:17:27.325Z,65.80
2018-10-17T01:19:57.746Z,66.00
2018-10-17T01:22:28.132Z,66.50
2018-10-17T01:24:58.605Z,65.70
2018-10-17T01:27:28.973Z,65.50
2018-10-17T01:29:59.431Z,65.20
2018-10-17T01:32:29.932Z,65.50
2018-10-17T01:35:00.466Z,65.50
2018-10-17T01:37:30.881Z,65.80
2018-10-17T01:40:01.900Z,66.00
2018-10-17T01:42:32.384Z,66.40
2018-10-17T01:45:03.232Z,66.30
2018-10-17T01:47:33.632Z,66.40
2018-10-17T01:50:04.196Z,66.40
2018-10-17T01:52:34.645Z,66.70
2018-10-17T01:55:05.314Z,66.80
2018-10-17T01:57:35.823Z,66.70
2018-10-17T02:00:06.728Z,66.80
2018-10-17T02:02:37.170Z,67.00
2018-10-17T02:05:07.743Z,66.90
2018-10-17T02:07:38.254Z,66.60
2018-10-17T02:10:08.814Z,67.10
2018-10-17T02:12:39.223Z,67.50
2018-10-17T02:15:09.678Z,67.50
2018-10-17T02:17:40.137Z,67.70
2018-10-17T02:20:10.627Z,67.60
2018-10-17T02:22:41.069Z,67.60
2018-10-17T02:25:11.556Z,67.30
2018-10-17T02:27:41.971Z,67.10
2018-10-17T02:30:12.400Z,67.30
2018-10-17T02:32:42.824Z,67.40
2018-10-17T02:35:15.932Z,67.70
2018-10-17T02:37:46.855Z,67.80
2018-10-17T02:40:17.345Z,68.10
2018-10-17T02:42:47.803Z,68.20
2018-10-17T02:45:18.289Z,68.20
2018-10-17T02:47:48.732Z,68.60
2018-10-17T02:50:19.153Z,68.10
2018-10-17T02:52:49.581Z,68.20
2018-10-17T02:55:20.076Z,68.30
2018-10-17T02:57:50.463Z,68.60
2018-10-17T03:00:20.929Z,68.60
2018-10-17T03:02:51.422Z,68.70
2018-10-17T03:05:21.927Z,68.60
2018-10-17T03:07:52.352Z,68.60
2018-10-17T03:10:22.845Z,68.60
2018-10-17T03:12:53.275Z,68.60
2018-10-17T03:15:23.748Z,68.70
2018-10-17T03:17:54.189Z,68.70
2018-10-17T03:20:25.128Z,68.90
2018-10-17T03:22:55.593Z,69.00
2018-10-17T03:25:26.099Z,69.10
2018-10-17T03:27:56.722Z,69.30
2018-10-17T03:30:27.031Z,69.00
2018-10-17T03:32:57.409Z,68.90
2018-10-17T03:35:27.885Z,69.10
2018-10-17T03:37:58.299Z,69.30
2018-10-17T03:40:28.761Z,69.50
2018-10-17T03:42:59.207Z,69.50
2018-10-17T03:45:29.696Z,69.50
2018-10-17T03:48:00.136Z,69.30
2018-10-17T03:50:30.585Z,69.20
2018-10-17T03:53:01.066Z,69.30
2018-10-17T03:55:31.551Z,69.50
2018-10-17T03:58:01.933Z,69.50
2018-10-17T04:00:32.353Z,69.50
2018-10-17T04:03:02.869Z,69.60
2018-10-17T04:05:33.305Z,69.80
2018-10-17T04:08:03.771Z,69.80
2018-10-17T04:10:34.232Z,69.70
2018-10-17T04:13:04.628Z,69.90
2018-10-17T04:15:35.168Z,70.00
2018-10-17T04:18:05.776Z,70.10
2018-10-17T04:20:36.316Z,70.10
2018-10-17T04:23:07.325Z,70.30
2018-10-17T04:25:37.829Z,70.50
2018-10-17T04:28:08.254Z,70.80
2018-10-17T04:30:38.673Z,70.80
2018-10-17T04:33:09.172Z,70.90
2018-10-17T04:35:39.733Z,71.00
2018-10-17T04:38:10.292Z,71.10
2018-10-17T04:40:40.685Z,71.10
2018-10-17T04:43:11.165Z,71.30
2018-10-17T04:45:41.878Z,71.20
2018-10-17T04:48:12.368Z,71.20
2018-10-17T04:50:42.834Z,71.10
2018-10-17T04:53:13.220Z,71.20
2018-10-17T04:55:43.567Z,71.30
2018-10-17T04:58:13.917Z,71.50
2018-10-17T05:00:44.309Z,71.50
2018-10-17T05:03:14.675Z,71.70
2018-10-17T05:05:45.094Z,71.80
2018-10-17T05:08:15.529Z,71.90
2018-10-17T05:10:45.864Z,72.20
2018-10-17T05:13:16.533Z,72.30
2018-10-17T05:15:46.883Z,72.40
2018-10-17T05:18:17.257Z,72.30
2018-10-17T05:20:53.881Z,72.30
2018-10-17T05:23:24.245Z,72.40
2018-10-17T05:25:54.523Z,72.40
2018-10-17T05:28:24.952Z,72.50
2018-10-17T05:30:55.257Z,72.70
2018-10-17T05:33:25.631Z,73.10
2018-10-17T05:35:56.041Z,73.10
2018-10-17T05:38:26.465Z,73.20
2018-10-17T05:40:56.832Z,73.30
2018-10-17T05:43:27.268Z,73.50
2018-10-17T05:45:57.569Z,73.70
2018-10-17T05:48:27.957Z,73.50
2018-10-17T05:50:58.319Z,73.40
2018-10-17T05:53:28.663Z,73.50
2018-10-17T05:55:59.047Z,73.50
2018-10-17T05:58:29.470Z,73.20
2018-10-17T06:00:59.852Z,73.20
2018-10-17T06:03:30.197Z,73.20
2018-10-17T06:06:00.563Z,73.20
2018-10-17T06:08:31.153Z,73.50
2018-10-17T06:11:01.474Z,73.40
2018-10-17T06:13:31.890Z,73.40
2018-10-17T06:16:02.234Z,73.60
2018-10-17T06:18:32.669Z,73.60
2018-10-17T06:21:02.968Z,73.60
2018-10-17T06:23:33.380Z,73.90
2018-10-17T06:26:03.749Z,73.70
2018-10-17T06:28:34.174Z,73.70
2018-10-17T06:31:04.556Z,73.50
2018-10-17T06:33:35.087Z,73.50
2018-10-17T06:36:05.497Z,73.90
2018-10-17T06:38:35.867Z,73.90
2018-10-17T06:41:06.676Z,73.80
2018-10-17T06:43:37.202Z,73.90
2018-10-17T06:46:08.409Z,74.10
2018-10-17T06:48:39.838Z,74.10
2018-10-17T06:51:10.285Z,74.30
2018-10-17T06:53:40.701Z,74.30
2018-10-17T06:56:11.238Z,74.80
2018-10-17T06:58:41.792Z,75.00
2018-10-17T07:01:16.130Z,74.90
2018-10-17T07:03:46.741Z,75.00
2018-10-17T07:06:21.441Z,75.30
2018-10-17T07:08:51.962Z,75.30
2018-10-17T07:11:22.544Z,75.50
2018-10-17T07:13:52.955Z,75.40
2018-10-17T07:16:23.325Z,75.60
2018-10-17T07:18:53.849Z,75.60
2018-10-17T07:21:24.330Z,75.60
2018-10-17T07:23:54.842Z,75.70
2018-10-17T07:26:25.218Z,75.90
2018-10-17T07:28:56.133Z,76.00
2018-10-17T07:31:26.573Z,76.00
2018-10-17T07:33:58.080Z,76.10
2018-10-17T08:21:40.510Z,76.40
2018-10-17T08:37:49.240Z,74.50
2018-10-17T08:40:19.269Z,72.80
2018-10-17T08:42:49.651Z,72.40
2018-10-17T08:45:20.181Z,72.20
2018-10-17T08:47:50.644Z,72.00
2018-10-17T08:50:21.026Z,71.90
2018-10-17T08:52:51.505Z,71.90
2018-10-17T08:55:22.008Z,71.80
2018-10-17T08:57:52.479Z,71.90
2018-10-17T09:00:23.094Z,72.00
2018-10-17T09:02:53.491Z,72.00
2018-10-17T09:05:25.064Z,72.00
2018-10-17T09:07:54.511Z,71.70
2018-10-17T09:10:24.902Z,71.50
2018-10-17T09:12:55.351Z,71.20
2018-10-17T09:15:25.870Z,70.80
2018-10-17T09:17:56.362Z,70.50
2018-10-17T09:20:27.443Z,70.20
2018-10-17T09:22:57.765Z,69.60
2018-10-17T09:25:28.261Z,69.30
2018-10-17T09:27:58.694Z,68.90
2018-10-17T09:30:29.249Z,68.50
2018-10-17T09:32:59.613Z,68.20
2018-10-17T09:35:30.445Z,67.90
2018-10-17T09:38:00.941Z,67.60
2018-10-17T09:40:31.404Z,67.20
2018-10-17T09:43:01.958Z,66.90
2018-10-17T09:45:32.441Z,66.70
2018-10-17T09:48:03.068Z,66.20
2018-10-17T09:50:33.608Z,65.90
2018-10-17T09:53:04.123Z,65.50
2018-10-17T09:55:34.601Z,65.30
2018-10-17T09:58:05.058Z,64.90
2018-10-17T10:00:40.489Z,64.30
2018-10-17T10:03:10.919Z,64.10
2018-10-17T10:05:41.411Z,63.90
2018-10-17T10:08:11.834Z,63.70
2018-10-17T10:10:42.307Z,63.30
2018-10-17T10:13:37.146Z,62.70
2018-10-17T10:16:08.029Z,62.30
2018-10-17T10:18:38.765Z,62.00
2018-10-17T10:21:09.737Z,61.80
2018-10-17T10:23:40.515Z,61.60
2018-10-17T10:26:11.023Z,62.20
2018-10-17T10:28:41.606Z,61.00
2018-10-17T10:31:12.217Z,60.80
2018-10-17T10:33:42.886Z,60.30
2018-10-17T10:36:13.541Z,59.50
2018-10-17T10:38:44.094Z,59.10
2018-10-17T10:41:14.708Z,59.00
2018-10-17T10:43:45.217Z,58.80
2018-10-17T10:46:16.400Z,58.50
2018-10-17T10:48:47.006Z,58.30
2018-10-17T10:51:17.693Z,58.10
2018-10-17T10:53:48.505Z,57.80
2018-10-17T10:56:19.180Z,57.80
2018-10-17T10:58:49.824Z,57.60
2018-10-17T11:01:20.242Z,57.20
2018-10-17T11:03:50.809Z,57.00
2018-10-17T11:06:21.316Z,56.90
2018-10-17T11:08:51.917Z,56.80
2018-10-17T11:11:22.832Z,56.60
2018-10-17T11:13:53.354Z,56.20
2018-10-17T11:16:24.170Z,56.10
2018-10-17T11:18:54.710Z,55.60
2018-10-17T11:21:25.437Z,55.30
2018-10-17T11:23:56.065Z,55.30
2018-10-17T11:26:26.644Z,55.00
2018-10-17T11:28:57.183Z,54.90
2018-10-17T11:31:27.924Z,54.70
2018-10-17T11:33:58.470Z,54.70
2018-10-17T11:36:29.118Z,54.60
2018-10-17T11:38:59.776Z,54.10
2018-10-17T11:41:30.792Z,53.80
2018-10-17T11:44:01.369Z,53.60
2018-10-17T11:46:31.970Z,53.40
2018-10-17T11:49:02.691Z,53.60
2018-10-17T11:51:33.555Z,53.30
2018-10-17T11:54:04.258Z,53.50
2018-10-17T11:56:34.884Z,52.90
2018-10-17T11:59:05.640Z,52.60
2018-10-17T12:01:36.251Z,52.70
2018-10-17T12:04:07.118Z,52.60
2018-10-17T12:06:37.699Z,52.70
2018-10-17T12:09:10.312Z,52.80
2018-10-17T12:11:41.405Z,52.80
2018-10-17T12:14:12.009Z,52.70
2018-10-17T12:16:42.642Z,52.60
2018-10-17T12:19:19.808Z,52.50
2018-10-17T12:21:50.423Z,52.50
2018-10-17T12:24:21.183Z,52.50
2018-10-17T12:26:51.767Z,52.40
2018-10-17T12:29:28.928Z,52.20
2018-10-17T12:31:59.498Z,52.20
2018-10-17T12:34:29.933Z,52.10
2018-10-17T12:37:00.361Z,51.90
2018-10-17T12:39:30.911Z,52.00
2018-10-17T12:42:01.494Z,51.80
2018-10-17T12:44:32.012Z,52.00
2018-10-17T12:47:02.539Z,52.10
2018-10-17T12:49:32.996Z,51.80
2018-10-17T12:52:03.523Z,51.80
2018-10-17T12:54:33.971Z,51.80
2018-10-17T12:57:04.512Z,51.80
2018-10-17T12:59:35.058Z,51.60
2018-10-17T13:02:05.748Z,51.80
2018-10-17T13:04:36.152Z,51.70
2018-10-17T13:07:07.011Z,51.70
2018-10-17T13:09:37.586Z,51.70
2018-10-17T13:12:08.718Z,51.70
2018-10-17T13:14:39.129Z,51.60
2018-10-17T13:17:09.899Z,51.50
2018-10-17T13:19:40.388Z,51.50
2018-10-17T13:22:10.871Z,51.40
2018-10-17T13:24:45.330Z,51.30
2018-10-17T13:27:16.559Z,51.90
2018-10-17T13:29:48.667Z,51.40
2018-10-17T13:32:20.178Z,51.50
2018-10-17T13:34:51.493Z,51.60
2018-10-17T13:37:23.030Z,51.60
2018-10-17T13:39:54.697Z,51.50
2018-10-17T13:42:26.270Z,51.40
2018-10-17T13:44:57.738Z,51.40
2018-10-17T13:47:29.407Z,51.30
2018-10-17T13:49:59.925Z,51.30
2018-10-17T13:52:33.670Z,51.30
2018-10-17T13:55:04.944Z,51.20
2018-10-17T13:57:35.955Z,51.10
2018-10-17T14:00:08.895Z,51.10
2018-10-17T14:02:39.834Z,51.10
2018-10-17T14:05:10.492Z,51.10
2018-10-17T14:07:41.049Z,51.00
2018-10-17T14:10:11.538Z,51.00
2018-10-17T14:12:42.209Z,51.10
2018-10-17T14:15:12.880Z,51.00
2018-10-17T14:17:43.471Z,51.10
2018-10-17T14:20:14.075Z,51.10
2018-10-17T14:22:46.531Z,50.90
2018-10-17T14:25:17.849Z,51.00
2018-10-17T14:34:08.773Z,50.90
2018-10-17T14:36:39.831Z,51.30
2018-10-17T14:39:13.487Z,50.80
2018-10-17T14:41:44.557Z,50.90
2018-10-17T14:44:15.709Z,50.90
2018-10-17T14:46:48.830Z,50.80
2018-10-17T14:49:26.607Z,50.80
2018-10-17T14:52:29.339Z,50.80
2018-10-17T14:55:24.507Z,50.80
2018-10-17T14:58:05.507Z,50.90
2018-10-17T15:09:40.161Z,51.00
2018-10-17T15:12:10.730Z,51.30
2018-10-17T15:14:41.205Z,51.40
2018-10-17T15:17:11.640Z,51.50
2018-10-17T15:19:42.285Z,51.60
2018-10-17T15:22:12.830Z,51.60
2018-10-17T15:24:43.326Z,51.60
2018-10-17T15:27:13.854Z,51.60
2018-10-17T15:29:44.350Z,51.70
2018-10-17T15:32:14.784Z,51.80
2018-10-17T15:34:45.301Z,51.80
2018-10-17T15:37:15.662Z,51.90
2018-10-17T15:39:46.083Z,51.90
2018-10-17T15:42:16.459Z,51.90
2018-10-17T15:44:46.886Z,52.00
2018-10-17T15:47:17.255Z,52.00
2018-10-17T15:49:47.749Z,52.10
2018-10-17T15:52:18.264Z,52.10
2018-10-17T15:54:48.647Z,52.20
2018-10-17T15:57:19.067Z,52.10
2018-10-17T15:59:49.533Z,52.20
2018-10-17T16:02:20.067Z,52.20
2018-10-17T16:04:52.263Z,52.30
2018-10-17T16:07:22.820Z,52.40
2018-10-17T16:09:53.333Z,52.50
2018-10-17T16:12:23.845Z,52.60
2018-10-17T16:14:54.295Z,52.80
2018-10-17T16:17:24.766Z,52.90
2018-10-17T16:19:55.229Z,53.10
2018-10-17T16:22:25.722Z,53.10
2018-10-17T16:24:56.221Z,53.20
2018-10-17T16:27:26.724Z,53.30
2018-10-17T16:29:57.263Z,53.40
2018-10-17T16:32:27.698Z,53.40
2018-10-17T16:34:58.330Z,53.60
2018-10-17T16:37:28.769Z,53.60
2018-10-17T16:39:59.330Z,53.70
2018-10-17T16:42:29.809Z,54.30
2018-10-17T16:45:00.287Z,53.90
2018-10-17T16:47:31.115Z,54.00
2018-10-17T16:50:01.737Z,54.00
2018-10-17T16:52:32.133Z,54.10
2018-10-17T16:55:02.825Z,54.20
2018-10-17T16:57:33.324Z,54.20
2018-10-17T17:00:04.047Z,54.40
2018-10-17T17:02:34.629Z,54.50
2018-10-17T17:05:05.235Z,54.70
2018-10-17T17:07:35.689Z,54.70
2018-10-17T17:10:18.687Z,54.90
2018-10-17T17:12:49.133Z,55.00
2018-10-17T17:15:19.853Z,55.20
2018-10-17T17:17:50.371Z,55.20
2018-10-17T17:20:20.952Z,55.30
2018-10-17T17:22:51.631Z,55.40
2018-10-17T17:25:22.181Z,55.40
2018-10-17T17:27:54.344Z,55.40
2018-10-17T17:30:26.087Z,55.50
2018-10-17T17:32:57.196Z,56.00
2018-10-17T17:35:28.243Z,55.50
2018-10-17T17:37:59.075Z,55.60
2018-10-17T17:40:30.332Z,55.60
2018-10-17T17:43:01.857Z,55.60
2018-10-17T17:45:33.335Z,55.60
2018-10-17T17:48:04.608Z,55.60
2018-10-17T17:50:47.585Z,55.70
2018-10-17T17:53:29.797Z,55.80
2018-10-17T17:56:01.160Z,55.90
2018-10-17T17:58:32.662Z,56.10
2018-10-17T18:01:03.969Z,56.30
2018-10-17T18:03:34.936Z,56.50
2018-10-17T18:06:06.065Z,56.60
2018-10-17T18:08:37.052Z,56.80
2018-10-17T18:11:22.989Z,56.90
2018-10-17T18:13:55.305Z,56.90
2018-10-17T18:16:26.319Z,57.10
2018-10-17T18:18:57.547Z,57.10
2018-10-17T18:21:28.570Z,57.10
2018-10-17T18:23:59.585Z,57.40
2018-10-17T18:26:30.742Z,57.40
2018-10-17T18:29:01.832Z,57.60
2018-10-17T18:31:33.070Z,57.90
2018-10-17T18:34:04.293Z,58.10
2018-10-17T18:36:35.498Z,58.40
2018-10-17T18:39:08.337Z,58.60
2018-10-17T18:41:39.477Z,58.80
2018-10-17T18:44:10.600Z,58.80
2018-10-17T18:46:41.688Z,59.00
2018-10-17T18:49:12.947Z,59.40
2018-10-17T18:51:44.031Z,59.50
2018-10-17T18:54:15.343Z,59.70
2018-10-17T18:56:46.471Z,59.70
2018-10-17T18:59:18.078Z,60.30
2018-10-17T19:01:49.318Z,60.40
2018-10-17T19:04:20.530Z,60.50
2018-10-17T19:06:51.808Z,60.90
2018-10-17T19:09:23.145Z,61.00
2018-10-17T19:11:54.360Z,61.60
2018-10-17T19:14:25.299Z,61.00
2018-10-17T19:16:56.238Z,61.60
2018-10-17T19:19:27.257Z,61.50
2018-10-17T19:21:58.182Z,62.40
2018-10-17T19:24:29.204Z,62.30
2018-10-17T19:27:00.274Z,62.50
2018-10-17T19:29:31.442Z,62.60
2018-10-17T19:32:02.527Z,62.90
2018-10-17T19:34:33.551Z,63.10
2018-10-17T19:37:05.060Z,62.90
2018-10-17T19:39:35.925Z,63.40
2018-10-17T19:42:07.158Z,64.50
2018-10-17T19:44:38.104Z,63.60
2018-10-17T19:47:09.267Z,64.20
2018-10-17T19:49:40.427Z,64.60
2018-10-17T19:52:19.671Z,64.10
2018-10-17T19:54:55.166Z,64.60
2018-10-17T19:57:29.695Z,64.90
2018-10-17T20:00:00.540Z,65.70
2018-10-17T20:02:31.501Z,65.20
2018-10-17T20:05:02.254Z,65.30
2018-10-17T20:07:33.056Z,66.10
2018-10-17T20:10:03.949Z,66.00
2018-10-17T20:12:40.180Z,65.80
2018-10-17T20:15:10.972Z,66.20
2018-10-17T20:17:41.649Z,67.00
2018-10-17T20:20:12.453Z,67.30
2018-10-17T20:22:43.385Z,67.00
2018-10-17T20:25:14.272Z,68.00
2018-10-17T20:27:45.084Z,67.70
2018-10-17T20:30:16.015Z,68.30
2018-10-17T20:32:46.970Z,68.80
2018-10-17T20:35:17.817Z,68.50
2018-10-17T20:37:48.785Z,68.90
2018-10-17T20:40:19.704Z,69.20
2018-10-17T20:42:50.679Z,69.10
2018-10-17T20:45:21.598Z,69.40
2018-10-17T20:47:53.543Z,69.80
2018-10-17T20:50:24.307Z,69.90
2018-10-17T20:52:55.165Z,69.80
2018-10-17T20:55:25.999Z,70.00
2018-10-17T20:57:56.899Z,69.90
2018-10-17T21:00:27.671Z,69.80
2018-10-17T21:02:58.394Z,70.50
2018-10-17T21:05:29.149Z,70.80
2018-10-17T21:08:04.856Z,71.20
2018-10-17T21:10:35.953Z,71.40
2018-10-17T21:13:07.029Z,71.60
2018-10-17T21:15:37.951Z,72.00
2018-10-17T21:18:08.986Z,72.10
2018-10-17T21:20:40.045Z,72.30
2018-10-17T21:23:11.092Z,72.50
2018-10-17T21:25:42.076Z,72.50
2018-10-17T21:28:13.282Z,72.70
2018-10-17T21:30:44.269Z,72.70
2018-10-17T21:33:16.105Z,73.00
2018-10-17T21:35:46.886Z,73.10
2018-10-17T21:38:18.011Z,73.30
2018-10-17T21:40:48.844Z,73.20
2018-10-17T21:43:19.968Z,73.10
2018-10-17T21:45:50.932Z,73.00
2018-10-17T21:48:22.383Z,73.10
2018-10-17T21:50:53.376Z,73.30
2018-10-17T21:53:24.822Z,73.50
2018-10-17T21:55:55.788Z,73.90
2018-10-17T21:58:26.828Z,73.70
2018-10-17T22:00:57.785Z,74.30
2018-10-17T22:03:29.035Z,74.10
2018-10-17T22:05:59.964Z,74.30
2018-10-17T22:08:30.848Z,74.10
2018-10-17T22:11:01.607Z,74.30
2018-10-17T22:13:32.431Z,74.60
2018-10-17T22:16:03.217Z,74.80
2018-10-17T22:18:34.080Z,75.00
2018-10-17T22:21:04.929Z,74.90
2018-10-17T22:23:35.838Z,74.70
2018-10-17T22:26:06.697Z,74.70
2018-10-17T22:28:37.837Z,75.10
2018-10-17T22:31:08.757Z,75.10
2018-10-17T22:33:39.598Z,74.80
2018-10-17T22:36:10.482Z,75.30
2018-10-17T22:38:41.389Z,75.10
2018-10-17T22:41:12.231Z,75.30
2018-10-17T22:43:43.156Z,75.10
2018-10-17T22:46:13.999Z,75.10
2018-10-17T22:48:45.052Z,74.90
2018-10-17T22:51:16.018Z,75.00
2018-10-17T22:53:46.872Z,75.10
2018-10-17T22:56:17.938Z,75.30
2018-10-17T22:58:48.734Z,75.40
2018-10-17T23:01:19.471Z,75.50
2018-10-17T23:03:50.320Z,75.90
2018-10-17T23:06:21.153Z,76.00
2018-10-17T23:08:52.045Z,76.10
2018-10-17T23:11:22.947Z,76.30
2018-10-17T23:13:54.162Z,76.10
2018-10-17T23:16:24.858Z,76.20
2018-10-17T23:18:55.673Z,76.10
2018-10-17T23:21:26.380Z,76.90
2018-10-17T23:23:57.300Z,76.60
2018-10-17T23:26:28.139Z,76.90
2018-10-17T23:28:58.985Z,76.70
2018-10-17T23:31:30.010Z,76.30
2018-10-17T23:34:00.876Z,76.70
2018-10-17T23:36:31.692Z,76.40
2018-10-17T23:39:02.560Z,77.00
2018-10-17T23:41:33.340Z,76.80
2018-10-17T23:44:04.217Z,77.20
2018-10-17T23:46:35.204Z,77.20
2018-10-17T23:49:06.659Z,77.90
2018-10-17T23:51:37.469Z,77.50
2018-10-17T23:54:08.434Z,77.20
2018-10-17T23:56:39.248Z,77.50
2018-10-17T23:59:10.210Z,77.80
